sensor_id;sensor_type;location;lat;lon;timestamp;temperature;humidity
22781;DHT22;11557;50.884;4.322;2024-03-06T00:01:53;9.90;99.90
22781;DHT22;11557;50.884;4.322;2024-03-06T00:04:18;9.80;99.90
22781;DHT22;11557;50.884;4.322;2024-03-06T00:06:44;9.80;99.90
22781;DHT22;11557;50.884;4.322;2024-03-06T00:09:10;9.80;99.90
22781;DHT22;11557;50.884;4.322;2024-03-06T00:11:36;9.80;99.90
22781;DHT22;11557;50.884;4.322;2024-03-06T00:14:04;9.70;99.90
22781;DHT22;11557;50.884;4.322;2024-03-06T00:16:31;9.60;99.90
22781;DHT22;11557;50.884;4.322;2024-03-06T00:18:57;9.50;99.90
22781;DHT22;11557;50.884;4.322;2024-03-06T00:21:22;9.40;99.90
22781;DHT22;11557;50.884;4.322;2024-03-06T00:23:48;9.60;99.90
22781;DHT22;11557;50.884;4.322;2024-03-06T00:26:13;9.30;99.90
22781;DHT22;11557;50.884;4.322;2024-03-06T00:28:39;9.40;99.90
22781;DHT22;11557;50.884;4.322;2024-03-06T00:31:05;9.40;99.90
22781;DHT22;11557;50.884;4.322;2024-03-06T00:33:31;9.50;99.90
22781;DHT22;11557;50.884;4.322;2024-03-06T00:35:57;9.50;99.90
22781;DHT22;11557;50.884;4.322;2024-03-06T00:38:22;9.90;99.90
22781;DHT22;11557;50.884;4.322;2024-03-06T00:40:48;9.50;99.90
22781;DHT22;11557;50.884;4.322;2024-03-06T00:43:14;9.40;99.90
22781;DHT22;11557;50.884;4.322;2024-03-06T00:45:40;9.50;99.90
22781;DHT22;11557;50.884;4.322;2024-03-06T00:48:05;9.50;99.90
22781;DHT22;11557;50.884;4.322;2024-03-06T00:50:31;9.40;99.90
22781;DHT22;11557;50.884;4.322;2024-03-06T00:52:57;9.50;99.90
22781;DHT22;11557;50.884;4.322;2024-03-06T00:55:23;9.40;99.90
22781;DHT22;11557;50.884;4.322;2024-03-06T00:57:49;9.30;99.90
22781;DHT22;11557;50.884;4.322;2024-03-06T01:00:15;9.30;99.90
22781;DHT22;11557;50.884;4.322;2024-03-06T01:02:41;9.30;99.90
22781;DHT22;11557;50.884;4.322;2024-03-06T01:05:07;9.40;99.90
22781;DHT22;11557;50.884;4.322;2024-03-06T01:07:35;9.30;99.90
22781;DHT22;11557;50.884;4.322;2024-03-06T01:10:03;9.10;99.90
22781;DHT22;11557;50.884;4.322;2024-03-06T01:12:29;9.10;99.90
22781;DHT22;11557;50.884;4.322;2024-03-06T01:14:54;9.20;99.90
22781;DHT22;11557;50.884;4.322;2024-03-06T01:17:20;9.30;99.90
22781;DHT22;11557;50.884;4.322;2024-03-06T01:19:46;9.10;99.90
22781;DHT22;11557;50.884;4.322;2024-03-06T01:22:12;9.30;99.90
22781;DHT22;11557;50.884;4.322;2024-03-06T01:24:40;10.00;99.90
22781;DHT22;11557;50.884;4.322;2024-03-06T01:27:06;8.90;99.90
22781;DHT22;11557;50.884;4.322;2024-03-06T01:29:32;9.10;99.90
22781;DHT22;11557;50.884;4.322;2024-03-06T01:31:58;8.60;99.90
22781;DHT22;11557;50.884;4.322;2024-03-06T01:34:25;8.60;99.90
22781;DHT22;11557;50.884;4.322;2024-03-06T01:36:53;8.70;99.90
22781;DHT22;11557;50.884;4.322;2024-03-06T01:39:19;8.50;99.90
22781;DHT22;11557;50.884;4.322;2024-03-06T01:41:49;8.70;99.90
22781;DHT22;11557;50.884;4.322;2024-03-06T01:44:15;8.80;99.90
22781;DHT22;11557;50.884;4.322;2024-03-06T01:46:42;8.90;99.90
22781;DHT22;11557;50.884;4.322;2024-03-06T01:49:09;8.70;99.90
22781;DHT22;11557;50.884;4.322;2024-03-06T01:51:35;8.50;99.90
22781;DHT22;11557;50.884;4.322;2024-03-06T01:54:02;8.50;99.90
22781;DHT22;11557;50.884;4.322;2024-03-06T01:56:33;8.70;99.90
22781;DHT22;11557;50.884;4.322;2024-03-06T01:59:00;8.60;99.90
22781;DHT22;11557;50.884;4.322;2024-03-06T02:01:27;8.70;99.90
22781;DHT22;11557;50.884;4.322;2024-03-06T02:03:53;9.10;99.90
22781;DHT22;11557;50.884;4.322;2024-03-06T02:06:19;8.50;99.90
22781;DHT22;11557;50.884;4.322;2024-03-06T02:08:46;8.60;99.90
22781;DHT22;11557;50.884;4.322;2024-03-06T02:11:12;8.90;99.90
22781;DHT22;11557;50.884;4.322;2024-03-06T02:13:39;8.40;99.90
22781;DHT22;11557;50.884;4.322;2024-03-06T02:16:06;8.60;99.90
22781;DHT22;11557;50.884;4.322;2024-03-06T02:18:31;8.40;99.90
22781;DHT22;11557;50.884;4.322;2024-03-06T02:20:57;8.40;99.90
22781;DHT22;11557;50.884;4.322;2024-03-06T02:23:23;8.30;99.90
22781;DHT22;11557;50.884;4.322;2024-03-06T02:25:49;8.20;99.90
22781;DHT22;11557;50.884;4.322;2024-03-06T02:28:16;8.10;99.90
22781;DHT22;11557;50.884;4.322;2024-03-06T02:30:42;8.20;99.90
22781;DHT22;11557;50.884;4.322;2024-03-06T02:33:08;8.10;99.90
22781;DHT22;11557;50.884;4.322;2024-03-06T02:35:37;8.20;99.90
22781;DHT22;11557;50.884;4.322;2024-03-06T02:38:04;8.40;99.90
22781;DHT22;11557;50.884;4.322;2024-03-06T02:40:33;8.40;99.90
22781;DHT22;11557;50.884;4.322;2024-03-06T02:42:59;8.50;99.90
22781;DHT22;11557;50.884;4.322;2024-03-06T02:45:24;8.10;99.90
22781;DHT22;11557;50.884;4.322;2024-03-06T02:47:50;7.90;99.90
22781;DHT22;11557;50.884;4.322;2024-03-06T02:50:16;7.80;99.90
22781;DHT22;11557;50.884;4.322;2024-03-06T02:52:41;7.80;99.90
22781;DHT22;11557;50.884;4.322;2024-03-06T02:55:07;7.90;99.90
22781;DHT22;11557;50.884;4.322;2024-03-06T02:57:33;8.10;99.90
22781;DHT22;11557;50.884;4.322;2024-03-06T02:59:59;8.30;99.90
22781;DHT22;11557;50.884;4.322;2024-03-06T03:02:25;9.60;99.90
22781;DHT22;11557;50.884;4.322;2024-03-06T03:04:51;8.50;99.90
22781;DHT22;11557;50.884;4.322;2024-03-06T03:07:20;8.10;99.90
22781;DHT22;11557;50.884;4.322;2024-03-06T03:09:46;8.00;99.90
22781;DHT22;11557;50.884;4.322;2024-03-06T03:12:15;8.00;99.90
22781;DHT22;11557;50.884;4.322;2024-03-06T03:14:41;8.20;99.90
22781;DHT22;11557;50.884;4.322;2024-03-06T03:17:07;8.60;99.90
22781;DHT22;11557;50.884;4.322;2024-03-06T03:19:33;7.90;99.90
22781;DHT22;11557;50.884;4.322;2024-03-06T03:21:59;8.00;99.90
22781;DHT22;11557;50.884;4.322;2024-03-06T03:24:25;7.80;99.90
22781;DHT22;11557;50.884;4.322;2024-03-06T03:26:52;8.00;99.90
22781;DHT22;11557;50.884;4.322;2024-03-06T03:29:18;7.80;99.90
22781;DHT22;11557;50.884;4.322;2024-03-06T03:31:43;7.60;99.90
22781;DHT22;11557;50.884;4.322;2024-03-06T03:34:09;9.30;99.90
22781;DHT22;11557;50.884;4.322;2024-03-06T03:36:43;7.40;99.90
22781;DHT22;11557;50.884;4.322;2024-03-06T03:39:12;7.30;99.90
22781;DHT22;11557;50.884;4.322;2024-03-06T03:41:47;7.20;99.90
22781;DHT22;11557;50.884;4.322;2024-03-06T03:44:17;9.10;99.90
22781;DHT22;11557;50.884;4.322;2024-03-06T03:46:44;7.30;99.90
22781;DHT22;11557;50.884;4.322;2024-03-06T03:49:13;7.40;99.90
22781;DHT22;11557;50.884;4.322;2024-03-06T03:51:39;7.50;99.90
22781;DHT22;11557;50.884;4.322;2024-03-06T03:54:06;8.50;99.90
22781;DHT22;11557;50.884;4.322;2024-03-06T03:56:32;7.60;99.90
22781;DHT22;11557;50.884;4.322;2024-03-06T03:58:59;7.30;99.90
22781;DHT22;11557;50.884;4.322;2024-03-06T04:01:27;7.50;99.90
22781;DHT22;11557;50.884;4.322;2024-03-06T04:03:53;7.50;99.90
22781;DHT22;11557;50.884;4.322;2024-03-06T04:06:19;8.30;99.90
22781;DHT22;11557;50.884;4.322;2024-03-06T04:08:44;7.50;99.90
22781;DHT22;11557;50.884;4.322;2024-03-06T04:11:10;7.90;99.90
22781;DHT22;11557;50.884;4.322;2024-03-06T04:13:38;8.90;99.90
22781;DHT22;11557;50.884;4.322;2024-03-06T04:16:05;8.20;99.90
22781;DHT22;11557;50.884;4.322;2024-03-06T04:18:31;7.50;99.90
22781;DHT22;11557;50.884;4.322;2024-03-06T04:21:06;7.50;99.90
22781;DHT22;11557;50.884;4.322;2024-03-06T04:23:35;7.40;99.90
22781;DHT22;11557;50.884;4.322;2024-03-06T04:26:02;7.40;99.90
22781;DHT22;11557;50.884;4.322;2024-03-06T04:28:29;7.40;99.90
22781;DHT22;11557;50.884;4.322;2024-03-06T04:30:55;7.50;99.90
22781;DHT22;11557;50.884;4.322;2024-03-06T04:33:21;7.70;99.90
22781;DHT22;11557;50.884;4.322;2024-03-06T04:35:47;7.70;99.90
22781;DHT22;11557;50.884;4.322;2024-03-06T04:38:16;7.40;99.90
22781;DHT22;11557;50.884;4.322;2024-03-06T04:40:41;7.50;99.90
22781;DHT22;11557;50.884;4.322;2024-03-06T04:43:07;7.60;99.90
22781;DHT22;11557;50.884;4.322;2024-03-06T04:45:33;7.70;99.90
22781;DHT22;11557;50.884;4.322;2024-03-06T04:47:59;7.50;99.90
22781;DHT22;11557;50.884;4.322;2024-03-06T04:50:25;7.60;99.90
22781;DHT22;11557;50.884;4.322;2024-03-06T04:52:50;7.40;99.90
22781;DHT22;11557;50.884;4.322;2024-03-06T04:55:16;7.40;99.90
22781;DHT22;11557;50.884;4.322;2024-03-06T04:57:47;7.60;99.90
22781;DHT22;11557;50.884;4.322;2024-03-06T05:00:13;7.60;99.90
22781;DHT22;11557;50.884;4.322;2024-03-06T05:02:39;7.50;99.90
22781;DHT22;11557;50.884;4.322;2024-03-06T05:05:07;7.40;99.90
22781;DHT22;11557;50.884;4.322;2024-03-06T05:07:34;7.30;99.90
22781;DHT22;11557;50.884;4.322;2024-03-06T05:10:00;7.40;99.90
22781;DHT22;11557;50.884;4.322;2024-03-06T05:12:27;7.40;99.90
22781;DHT22;11557;50.884;4.322;2024-03-06T05:14:53;7.50;99.90
22781;DHT22;11557;50.884;4.322;2024-03-06T05:17:19;7.60;99.90
22781;DHT22;11557;50.884;4.322;2024-03-06T05:19:46;7.60;99.90
22781;DHT22;11557;50.884;4.322;2024-03-06T05:22:13;7.70;99.90
22781;DHT22;11557;50.884;4.322;2024-03-06T05:24:39;8.10;99.90
22781;DHT22;11557;50.884;4.322;2024-03-06T05:27:06;7.80;99.90
22781;DHT22;11557;50.884;4.322;2024-03-06T05:29:32;8.80;99.90
22781;DHT22;11557;50.884;4.322;2024-03-06T05:31:58;7.80;99.90
22781;DHT22;11557;50.884;4.322;2024-03-06T05:34:24;8.10;99.90
22781;DHT22;11557;50.884;4.322;2024-03-06T05:36:50;7.80;99.90
22781;DHT22;11557;50.884;4.322;2024-03-06T05:39:18;7.90;99.90
22781;DHT22;11557;50.884;4.322;2024-03-06T05:41:44;8.00;99.90
22781;DHT22;11557;50.884;4.322;2024-03-06T05:44:10;7.80;99.90
22781;DHT22;11557;50.884;4.322;2024-03-06T05:46:36;7.80;99.90
22781;DHT22;11557;50.884;4.322;2024-03-06T05:49:02;7.80;99.90
22781;DHT22;11557;50.884;4.322;2024-03-06T05:51:28;7.70;99.90
22781;DHT22;11557;50.884;4.322;2024-03-06T05:53:54;7.50;99.90
22781;DHT22;11557;50.884;4.322;2024-03-06T05:56:20;7.50;99.90
22781;DHT22;11557;50.884;4.322;2024-03-06T05:58:46;7.60;99.90
22781;DHT22;11557;50.884;4.322;2024-03-06T06:01:17;7.60;99.90
22781;DHT22;11557;50.884;4.322;2024-03-06T06:03:47;7.50;99.90
22781;DHT22;11557;50.884;4.322;2024-03-06T06:06:17;8.30;99.90
22781;DHT22;11557;50.884;4.322;2024-03-06T06:08:44;7.70;99.90
22781;DHT22;11557;50.884;4.322;2024-03-06T06:11:11;7.50;99.90
22781;DHT22;11557;50.884;4.322;2024-03-06T06:13:38;7.70;99.90
22781;DHT22;11557;50.884;4.322;2024-03-06T06:16:05;7.70;99.90
22781;DHT22;11557;50.884;4.322;2024-03-06T06:18:31;7.70;99.90
22781;DHT22;11557;50.884;4.322;2024-03-06T06:20:58;7.70;99.90
22781;DHT22;11557;50.884;4.322;2024-03-06T06:23:24;7.70;99.90
22781;DHT22;11557;50.884;4.322;2024-03-06T06:25:49;8.30;99.90
22781;DHT22;11557;50.884;4.322;2024-03-06T06:28:15;7.70;99.90
22781;DHT22;11557;50.884;4.322;2024-03-06T06:30:41;7.70;99.90
22781;DHT22;11557;50.884;4.322;2024-03-06T06:33:07;7.60;99.90
22781;DHT22;11557;50.884;4.322;2024-03-06T06:35:33;7.60;99.90
22781;DHT22;11557;50.884;4.322;2024-03-06T06:38:00;7.60;99.90
22781;DHT22;11557;50.884;4.322;2024-03-06T06:40:26;7.60;99.90
22781;DHT22;11557;50.884;4.322;2024-03-06T06:42:53;7.80;99.90
22781;DHT22;11557;50.884;4.322;2024-03-06T06:45:20;7.70;99.90
22781;DHT22;11557;50.884;4.322;2024-03-06T06:47:47;8.50;99.90
22781;DHT22;11557;50.884;4.322;2024-03-06T06:50:13;7.80;99.90
22781;DHT22;11557;50.884;4.322;2024-03-06T06:52:39;7.70;99.90
22781;DHT22;11557;50.884;4.322;2024-03-06T06:55:06;8.60;99.90
22781;DHT22;11557;50.884;4.322;2024-03-06T06:57:32;7.70;99.90
22781;DHT22;11557;50.884;4.322;2024-03-06T06:59:59;7.30;99.90
22781;DHT22;11557;50.884;4.322;2024-03-06T07:02:25;8.70;99.90
22781;DHT22;11557;50.884;4.322;2024-03-06T07:04:52;8.00;99.90
22781;DHT22;11557;50.884;4.322;2024-03-06T07:07:17;7.60;99.90
22781;DHT22;11557;50.884;4.322;2024-03-06T07:09:43;8.40;99.90
22781;DHT22;11557;50.884;4.322;2024-03-06T07:12:09;7.50;99.90
22781;DHT22;11557;50.884;4.322;2024-03-06T07:14:35;7.50;99.90
22781;DHT22;11557;50.884;4.322;2024-03-06T07:17:01;7.70;99.90
22781;DHT22;11557;50.884;4.322;2024-03-06T07:19:26;7.70;99.90
22781;DHT22;11557;50.884;4.322;2024-03-06T07:21:52;7.80;99.90
22781;DHT22;11557;50.884;4.322;2024-03-06T07:24:19;7.80;99.90
22781;DHT22;11557;50.884;4.322;2024-03-06T07:26:44;7.90;99.90
22781;DHT22;11557;50.884;4.322;2024-03-06T07:29:10;7.80;99.90
22781;DHT22;11557;50.884;4.322;2024-03-06T07:31:41;7.60;99.90
22781;DHT22;11557;50.884;4.322;2024-03-06T07:34:07;7.70;99.90
22781;DHT22;11557;50.884;4.322;2024-03-06T07:36:34;7.60;99.90
22781;DHT22;11557;50.884;4.322;2024-03-06T07:39:03;7.80;99.90
22781;DHT22;11557;50.884;4.322;2024-03-06T07:41:30;7.80;99.90
22781;DHT22;11557;50.884;4.322;2024-03-06T07:43:58;7.90;99.90
22781;DHT22;11557;50.884;4.322;2024-03-06T07:46:25;8.00;99.90
22781;DHT22;11557;50.884;4.322;2024-03-06T07:48:51;7.80;99.90
22781;DHT22;11557;50.884;4.322;2024-03-06T07:51:17;7.70;99.90
22781;DHT22;11557;50.884;4.322;2024-03-06T07:53:43;7.70;99.90
22781;DHT22;11557;50.884;4.322;2024-03-06T07:56:12;7.90;99.90
22781;DHT22;11557;50.884;4.322;2024-03-06T07:58:38;7.80;99.90
22781;DHT22;11557;50.884;4.322;2024-03-06T08:01:04;9.10;99.90
22781;DHT22;11557;50.884;4.322;2024-03-06T08:03:30;7.70;99.90
22781;DHT22;11557;50.884;4.322;2024-03-06T08:05:55;8.10;99.90
22781;DHT22;11557;50.884;4.322;2024-03-06T08:08:21;7.80;99.90
22781;DHT22;11557;50.884;4.322;2024-03-06T08:10:47;7.90;99.90
22781;DHT22;11557;50.884;4.322;2024-03-06T08:13:13;7.80;99.90
22781;DHT22;11557;50.884;4.322;2024-03-06T08:15:39;7.90;99.90
22781;DHT22;11557;50.884;4.322;2024-03-06T08:18:06;7.70;99.90
22781;DHT22;11557;50.884;4.322;2024-03-06T08:20:32;7.60;99.90
22781;DHT22;11557;50.884;4.322;2024-03-06T08:22:58;7.60;99.90
22781;DHT22;11557;50.884;4.322;2024-03-06T08:25:24;8.40;99.90
22781;DHT22;11557;50.884;4.322;2024-03-06T08:27:50;7.70;99.90
22781;DHT22;11557;50.884;4.322;2024-03-06T08:30:16;7.70;99.90
22781;DHT22;11557;50.884;4.322;2024-03-06T08:32:42;7.60;99.90
22781;DHT22;11557;50.884;4.322;2024-03-06T08:35:11;7.80;99.90
22781;DHT22;11557;50.884;4.322;2024-03-06T08:37:41;7.70;99.90
22781;DHT22;11557;50.884;4.322;2024-03-06T08:40:07;8.10;99.90
22781;DHT22;11557;50.884;4.322;2024-03-06T08:42:36;7.80;99.90
22781;DHT22;11557;50.884;4.322;2024-03-06T08:45:02;7.80;99.90
22781;DHT22;11557;50.884;4.322;2024-03-06T08:47:27;7.80;99.90
22781;DHT22;11557;50.884;4.322;2024-03-06T08:49:53;7.80;99.90
22781;DHT22;11557;50.884;4.322;2024-03-06T08:52:20;7.90;99.90
22781;DHT22;11557;50.884;4.322;2024-03-06T08:54:46;8.00;99.90
22781;DHT22;11557;50.884;4.322;2024-03-06T08:57:12;8.00;99.90
22781;DHT22;11557;50.884;4.322;2024-03-06T08:59:38;8.40;99.90
22781;DHT22;11557;50.884;4.322;2024-03-06T09:02:14;8.10;99.90
22781;DHT22;11557;50.884;4.322;2024-03-06T09:04:41;8.10;99.90
22781;DHT22;11557;50.884;4.322;2024-03-06T09:07:07;8.10;99.90
22781;DHT22;11557;50.884;4.322;2024-03-06T09:09:33;8.10;99.90
22781;DHT22;11557;50.884;4.322;2024-03-06T09:12:03;8.20;99.90
22781;DHT22;11557;50.884;4.322;2024-03-06T09:14:31;8.30;99.90
22781;DHT22;11557;50.884;4.322;2024-03-06T09:16:57;9.40;99.90
22781;DHT22;11557;50.884;4.322;2024-03-06T09:19:22;11.20;99.90
22781;DHT22;11557;50.884;4.322;2024-03-06T09:21:48;13.20;99.90
22781;DHT22;11557;50.884;4.322;2024-03-06T09:24:14;15.00;99.90
22781;DHT22;11557;50.884;4.322;2024-03-06T09:26:39;16.50;99.90
22781;DHT22;11557;50.884;4.322;2024-03-06T09:29:05;18.40;99.90
22781;DHT22;11557;50.884;4.322;2024-03-06T09:31:31;19.30;99.90
22781;DHT22;11557;50.884;4.322;2024-03-06T09:33:56;19.40;99.90
22781;DHT22;11557;50.884;4.322;2024-03-06T09:36:25;18.40;99.90
22781;DHT22;11557;50.884;4.322;2024-03-06T09:38:51;17.90;99.90
22781;DHT22;11557;50.884;4.322;2024-03-06T09:41:18;17.50;99.90
22781;DHT22;11557;50.884;4.322;2024-03-06T09:43:44;19.00;99.90
22781;DHT22;11557;50.884;4.322;2024-03-06T09:46:10;19.00;99.90
22781;DHT22;11557;50.884;4.322;2024-03-06T09:48:36;19.40;99.90
22781;DHT22;11557;50.884;4.322;2024-03-06T09:51:07;21.10;99.90
22781;DHT22;11557;50.884;4.322;2024-03-06T09:53:33;20.80;99.90
22781;DHT22;11557;50.884;4.322;2024-03-06T09:55:59;20.80;99.90
22781;DHT22;11557;50.884;4.322;2024-03-06T09:58:25;21.10;99.90
22781;DHT22;11557;50.884;4.322;2024-03-06T10:00:51;20.20;99.90
22781;DHT22;11557;50.884;4.322;2024-03-06T10:03:18;20.00;99.90
22781;DHT22;11557;50.884;4.322;2024-03-06T10:05:45;20.30;99.90
22781;DHT22;11557;50.884;4.322;2024-03-06T10:08:11;20.50;99.90
22781;DHT22;11557;50.884;4.322;2024-03-06T10:10:42;21.00;99.90
22781;DHT22;11557;50.884;4.322;2024-03-06T10:13:08;21.50;99.90
22781;DHT22;11557;50.884;4.322;2024-03-06T10:15:34;21.60;99.90
22781;DHT22;11557;50.884;4.322;2024-03-06T10:18:12;21.30;99.90
22781;DHT22;11557;50.884;4.322;2024-03-06T10:20:38;21.50;99.90
22781;DHT22;11557;50.884;4.322;2024-03-06T10:23:04;19.80;99.90
22781;DHT22;11557;50.884;4.322;2024-03-06T10:25:30;18.80;99.90
22781;DHT22;11557;50.884;4.322;2024-03-06T10:28:05;18.00;99.90
22781;DHT22;11557;50.884;4.322;2024-03-06T10:30:39;17.70;99.90
22781;DHT22;11557;50.884;4.322;2024-03-06T10:33:08;17.90;99.90
22781;DHT22;11557;50.884;4.322;2024-03-06T10:35:34;18.00;99.90
22781;DHT22;11557;50.884;4.322;2024-03-06T10:38:03;17.80;99.90
22781;DHT22;11557;50.884;4.322;2024-03-06T10:40:34;18.60;99.90
22781;DHT22;11557;50.884;4.322;2024-03-06T10:43:01;18.80;99.90
22781;DHT22;11557;50.884;4.322;2024-03-06T10:45:40;18.20;99.90
22781;DHT22;11557;50.884;4.322;2024-03-06T10:48:09;18.00;99.90
22781;DHT22;11557;50.884;4.322;2024-03-06T10:50:43;18.60;99.90
22781;DHT22;11557;50.884;4.322;2024-03-06T10:53:14;18.40;99.90
22781;DHT22;11557;50.884;4.322;2024-03-06T10:55:42;17.80;99.90
22781;DHT22;11557;50.884;4.322;2024-03-06T10:58:10;17.60;99.90
22781;DHT22;11557;50.884;4.322;2024-03-06T11:00:45;17.40;99.90
22781;DHT22;11557;50.884;4.322;2024-03-06T11:03:15;17.50;99.90
22781;DHT22;11557;50.884;4.322;2024-03-06T11:05:45;17.30;99.90
22781;DHT22;11557;50.884;4.322;2024-03-06T11:08:16;16.20;99.90
22781;DHT22;11557;50.884;4.322;2024-03-06T11:10:45;16.00;99.90
22781;DHT22;11557;50.884;4.322;2024-03-06T11:15:46;15.50;99.90
22781;DHT22;11557;50.884;4.322;2024-03-06T11:23:29;15.40;99.90
22781;DHT22;11557;50.884;4.322;2024-03-06T11:28:35;15.00;99.90
22781;DHT22;11557;50.884;4.322;2024-03-06T11:31:11;14.50;99.90
22781;DHT22;11557;50.884;4.322;2024-03-06T11:33:47;14.10;99.90
22781;DHT22;11557;50.884;4.322;2024-03-06T11:36:24;13.70;99.90
22781;DHT22;11557;50.884;4.322;2024-03-06T11:39:04;13.50;99.90
22781;DHT22;11557;50.884;4.322;2024-03-06T11:44:14;12.70;99.90
22781;DHT22;11557;50.884;4.322;2024-03-06T11:46:57;12.50;99.90
22781;DHT22;11557;50.884;4.322;2024-03-06T11:49:32;12.60;99.90
22781;DHT22;11557;50.884;4.322;2024-03-06T11:52:04;12.70;99.90
22781;DHT22;11557;50.884;4.322;2024-03-06T11:54:32;12.70;99.90
22781;DHT22;11557;50.884;4.322;2024-03-06T11:57:00;12.90;99.90
22781;DHT22;11557;50.884;4.322;2024-03-06T11:59:27;12.80;99.90
22781;DHT22;11557;50.884;4.322;2024-03-06T12:02:03;12.40;99.90
22781;DHT22;11557;50.884;4.322;2024-03-06T12:04:33;12.40;99.90
22781;DHT22;11557;50.884;4.322;2024-03-06T12:07:00;12.60;99.90
22781;DHT22;11557;50.884;4.322;2024-03-06T12:09:30;12.70;99.90
22781;DHT22;11557;50.884;4.322;2024-03-06T12:11:56;12.60;99.90
22781;DHT22;11557;50.884;4.322;2024-03-06T12:14:22;12.80;99.90
22781;DHT22;11557;50.884;4.322;2024-03-06T12:17:16;12.80;99.90
22781;DHT22;11557;50.884;4.322;2024-03-06T12:19:42;12.80;99.90
22781;DHT22;11557;50.884;4.322;2024-03-06T12:22:12;13.00;99.90
22781;DHT22;11557;50.884;4.322;2024-03-06T12:24:41;13.10;99.90
22781;DHT22;11557;50.884;4.322;2024-03-06T12:27:11;13.30;99.90
22781;DHT22;11557;50.884;4.322;2024-03-06T12:29:38;13.40;99.90
22781;DHT22;11557;50.884;4.322;2024-03-06T12:32:16;13.40;99.90
22781;DHT22;11557;50.884;4.322;2024-03-06T12:34:42;13.40;99.90
22781;DHT22;11557;50.884;4.322;2024-03-06T12:37:09;13.40;99.90
22781;DHT22;11557;50.884;4.322;2024-03-06T12:39:36;13.50;99.90
22781;DHT22;11557;50.884;4.322;2024-03-06T12:42:01;13.70;99.90
22781;DHT22;11557;50.884;4.322;2024-03-06T12:44:27;13.70;99.90
22781;DHT22;11557;50.884;4.322;2024-03-06T12:46:52;13.70;99.90
22781;DHT22;11557;50.884;4.322;2024-03-06T12:49:18;13.80;99.90
22781;DHT22;11557;50.884;4.322;2024-03-06T12:51:44;13.70;99.90
22781;DHT22;11557;50.884;4.322;2024-03-06T12:54:09;13.60;99.90
22781;DHT22;11557;50.884;4.322;2024-03-06T12:56:35;13.30;99.90
22781;DHT22;11557;50.884;4.322;2024-03-06T12:59:01;13.20;99.90
22781;DHT22;11557;50.884;4.322;2024-03-06T13:01:27;13.10;99.90
22781;DHT22;11557;50.884;4.322;2024-03-06T13:03:52;13.20;99.90
22781;DHT22;11557;50.884;4.322;2024-03-06T13:06:19;13.20;99.90
22781;DHT22;11557;50.884;4.322;2024-03-06T13:08:45;13.10;99.90
22781;DHT22;11557;50.884;4.322;2024-03-06T13:11:10;13.20;99.90
22781;DHT22;11557;50.884;4.322;2024-03-06T13:13:37;13.30;99.90
22781;DHT22;11557;50.884;4.322;2024-03-06T13:16:03;13.40;99.90
22781;DHT22;11557;50.884;4.322;2024-03-06T13:18:29;13.50;99.90
22781;DHT22;11557;50.884;4.322;2024-03-06T13:20:54;13.70;99.90
22781;DHT22;11557;50.884;4.322;2024-03-06T13:23:20;13.60;99.90
22781;DHT22;11557;50.884;4.322;2024-03-06T13:25:47;13.40;99.90
22781;DHT22;11557;50.884;4.322;2024-03-06T13:28:13;13.60;99.90
22781;DHT22;11557;50.884;4.322;2024-03-06T13:30:39;13.70;99.90
22781;DHT22;11557;50.884;4.322;2024-03-06T13:33:05;13.80;99.90
22781;DHT22;11557;50.884;4.322;2024-03-06T13:35:31;13.80;99.90
22781;DHT22;11557;50.884;4.322;2024-03-06T13:37:57;14.00;99.90
22781;DHT22;11557;50.884;4.322;2024-03-06T13:40:22;13.90;99.90
22781;DHT22;11557;50.884;4.322;2024-03-06T13:42:48;14.00;99.90
22781;DHT22;11557;50.884;4.322;2024-03-06T13:45:14;13.90;99.90
22781;DHT22;11557;50.884;4.322;2024-03-06T13:47:43;13.70;99.90
22781;DHT22;11557;50.884;4.322;2024-03-06T13:50:11;13.80;99.90
22781;DHT22;11557;50.884;4.322;2024-03-06T13:52:37;13.90;99.90
22781;DHT22;11557;50.884;4.322;2024-03-06T13:55:04;13.90;99.90
22781;DHT22;11557;50.884;4.322;2024-03-06T13:57:33;14.00;99.90
22781;DHT22;11557;50.884;4.322;2024-03-06T14:00:03;14.00;99.90
22781;DHT22;11557;50.884;4.322;2024-03-06T14:02:38;14.10;99.90
22781;DHT22;11557;50.884;4.322;2024-03-06T14:05:05;14.10;99.90
22781;DHT22;11557;50.884;4.322;2024-03-06T14:07:31;13.90;99.90
22781;DHT22;11557;50.884;4.322;2024-03-06T14:09:56;14.00;99.90
22781;DHT22;11557;50.884;4.322;2024-03-06T14:12:23;14.10;99.90
22781;DHT22;11557;50.884;4.322;2024-03-06T14:14:49;14.10;99.90
22781;DHT22;11557;50.884;4.322;2024-03-06T14:17:14;14.10;99.90
22781;DHT22;11557;50.884;4.322;2024-03-06T14:19:40;13.90;99.90
22781;DHT22;11557;50.884;4.322;2024-03-06T14:22:07;14.10;99.90
22781;DHT22;11557;50.884;4.322;2024-03-06T14:24:33;14.00;99.90
22781;DHT22;11557;50.884;4.322;2024-03-06T14:26:59;13.90;99.90
22781;DHT22;11557;50.884;4.322;2024-03-06T14:29:25;13.90;99.90
22781;DHT22;11557;50.884;4.322;2024-03-06T14:31:53;13.80;99.90
22781;DHT22;11557;50.884;4.322;2024-03-06T14:34:19;14.00;99.90
22781;DHT22;11557;50.884;4.322;2024-03-06T14:36:45;14.00;99.90
22781;DHT22;11557;50.884;4.322;2024-03-06T14:39:11;14.20;99.90
22781;DHT22;11557;50.884;4.322;2024-03-06T14:41:39;14.00;99.90
22781;DHT22;11557;50.884;4.322;2024-03-06T14:44:04;14.00;99.90
22781;DHT22;11557;50.884;4.322;2024-03-06T14:46:31;13.90;99.90
22781;DHT22;11557;50.884;4.322;2024-03-06T14:48:56;13.70;99.90
22781;DHT22;11557;50.884;4.322;2024-03-06T14:51:22;13.70;99.90
22781;DHT22;11557;50.884;4.322;2024-03-06T14:53:48;13.60;99.90
22781;DHT22;11557;50.884;4.322;2024-03-06T14:56:13;13.50;99.90
22781;DHT22;11557;50.884;4.322;2024-03-06T14:58:39;13.30;99.90
22781;DHT22;11557;50.884;4.322;2024-03-06T15:01:05;13.30;99.90
22781;DHT22;11557;50.884;4.322;2024-03-06T15:03:31;13.30;99.90
22781;DHT22;11557;50.884;4.322;2024-03-06T15:05:57;13.20;99.90
22781;DHT22;11557;50.884;4.322;2024-03-06T15:08:22;13.30;99.90
22781;DHT22;11557;50.884;4.322;2024-03-06T15:10:49;13.40;99.90
22781;DHT22;11557;50.884;4.322;2024-03-06T15:13:17;13.60;99.90
22781;DHT22;11557;50.884;4.322;2024-03-06T15:15:44;13.60;99.90
22781;DHT22;11557;50.884;4.322;2024-03-06T15:18:10;13.60;99.90
22781;DHT22;11557;50.884;4.322;2024-03-06T15:20:35;13.60;99.90
22781;DHT22;11557;50.884;4.322;2024-03-06T15:23:02;13.70;99.90
22781;DHT22;11557;50.884;4.322;2024-03-06T15:25:28;13.40;99.90
22781;DHT22;11557;50.884;4.322;2024-03-06T15:27:53;13.30;99.90
22781;DHT22;11557;50.884;4.322;2024-03-06T15:30:19;13.30;99.90
22781;DHT22;11557;50.884;4.322;2024-03-06T15:32:46;13.70;99.90
22781;DHT22;11557;50.884;4.322;2024-03-06T15:35:12;13.90;99.90
22781;DHT22;11557;50.884;4.322;2024-03-06T15:37:38;14.00;99.90
22781;DHT22;11557;50.884;4.322;2024-03-06T15:40:04;14.20;99.90
22781;DHT22;11557;50.884;4.322;2024-03-06T15:42:32;14.40;99.90
22781;DHT22;11557;50.884;4.322;2024-03-06T15:44:57;14.20;99.90
22781;DHT22;11557;50.884;4.322;2024-03-06T15:47:23;14.10;99.90
22781;DHT22;11557;50.884;4.322;2024-03-06T15:49:49;14.10;99.90
22781;DHT22;11557;50.884;4.322;2024-03-06T15:52:15;14.20;99.90